Terminal Aerodrome Forecast
Issued by NWS

Home | Current Version | Previous Version | Text Only | Print | Product List | Glossary On
Versions: 1 2 3 4 5 6 7 8 9 10 11 12 13 14 15 16 17 18 19 20 21 22 23 24
000
FTUS43 KJKL 161300 AAA
TAFSJS
TAF AMD
KSJS 161335Z 1614/1712 VRB03KT P6SM SCT008 BKN025
     FM162100 00000KT P6SM SCT035
     FM170600 00000KT 2SM BR SCT001=

USA.gov is the U.S. government's official web portal to all federal, state and local government web resources and services.